Time;durP1;ratioP1;P1;durP2;ratioP2;P2;SDS_P1;SDS_P2;PMS_P1;PMS_P2;Temp;Humidity;BMP_temperature;BMP_pressure;BME280_temperature;BME280_humidity;BME280_pressure;Samples;Min_cycle;Max_cycle;Signal;HPM_P1;HPM_P2
2024/02/06 00:00:14;;;;;;;17.50;7.72;;;;;;;;;;625287;23;1453;-75
2024/02/06 00:00:29;;;;;;;18.20;7.70;;;;;;;;;;624883;23;1023;-75
2024/02/06 00:00:46;;;;;;;18.52;7.53;;;;;;;;;;628127;23;1349;-75
2024/02/06 00:01:01;;;;;;;16.20;7.13;;;;;;;;;;628769;23;844;-75
2024/02/06 00:01:17;;;;;;;14.65;7.05;;;;;;;;;;626031;23;1061;-75
2024/02/06 00:01:32;;;;;;;14.53;7.30;;;;;;;;;;626057;23;844;-75
2024/02/06 00:01:48;;;;;;;16.45;7.45;;;;;;;;;;624931;23;908;-75
2024/02/06 00:02:07;;;;;;;16.50;7.28;;;;;;;;;;625341;23;1383;-75
2024/02/06 00:02:23;;;;;;;16.10;7.05;;;;;;;;;;624570;23;876;-74
2024/02/06 00:02:38;;;;;;;17.83;7.33;;;;;;;;;;625537;23;1074;-75
2024/02/06 00:02:53;;;;;;;18.30;7.67;;;;;;;;;;625273;23;1238;-75
2024/02/06 00:03:10;;;;;;;18.55;7.72;;;;;;;;;;629389;23;1325;-75
2024/02/06 00:03:25;;;;;;;15.65;7.50;;;;;;;;;;633003;23;940;-75
2024/02/06 00:03:41;;;;;;;14.50;7.63;;;;;;;;;;631842;23;1120;-74
2024/02/06 00:03:56;;;;;;;15.47;7.47;;;;;;;;;;627822;23;1350;-74
2024/02/06 00:04:11;;;;;;;17.52;7.35;;;;;;;;;;628188;23;1277;-75
2024/02/06 00:04:27;;;;;;;17.50;7.40;;;;;;;;;;627558;23;1043;-75
2024/02/06 00:04:42;;;;;;;15.47;7.30;;;;;;;;;;625620;23;1270;-75
2024/02/06 00:04:57;;;;;;;15.80;7.40;;;;;;;;;;625005;23;824;-75
2024/02/06 00:05:13;;;;;;;16.53;7.23;;;;;;;;;;622606;23;1144;-75
2024/02/06 00:05:28;;;;;;;14.90;7.27;;;;;;;;;;625052;23;1317;-75
2024/02/06 00:05:43;;;;;;;15.23;7.18;;;;;;;;;;622827;23;1486;-75
2024/02/06 00:05:59;;;;;;;13.47;6.80;;;;;;;;;;625258;23;1202;-75
2024/02/06 00:06:14;;;;;;;14.07;7.00;;;;;;;;;;625315;23;1256;-75
2024/02/06 00:06:29;;;;;;;16.07;7.43;;;;;;;;;;625101;23;1116;-75
2024/02/06 00:06:45;;;;;;;16.38;7.47;;;;;;;;;;628467;23;853;-75
2024/02/06 00:07:00;;;;;;;17.13;7.03;;;;;;;;;;625582;23;1176;-75
2024/02/06 00:07:15;;;;;;;17.30;6.93;;;;;;;;;;624832;23;1077;-75
2024/02/06 00:07:31;;;;;;;19.13;7.50;;;;;;;;;;626063;23;1306;-75
2024/02/06 00:07:46;;;;;;;17.53;7.57;;;;;;;;;;628619;23;927;-75
2024/02/06 00:08:01;;;;;;;14.03;7.13;;;;;;;;;;628125;23;864;-75
2024/02/06 00:08:16;;;;;;;16.55;7.30;;;;;;;;;;628338;23;746;-75
2024/02/06 00:08:34;;;;;;;18.70;7.57;;;;;;;;;;628231;23;1044;-75
2024/02/06 00:08:49;;;;;;;16.05;7.22;;;;;;;;;;628239;23;1183;-75
2024/02/06 00:09:06;;;;;;;17.45;7.25;;;;;;;;;;628620;23;864;-75
2024/02/06 00:09:21;;;;;;;17.45;7.38;;;;;;;;;;629604;23;1260;-75
2024/02/06 00:09:37;;;;;;;15.80;7.28;;;;;;;;;;634573;23;1166;-75
2024/02/06 00:09:52;;;;;;;15.77;7.00;;;;;;;;;;634447;23;1120;-75
2024/02/06 00:10:08;;;;;;;15.20;6.95;;;;;;;;;;634407;23;1264;-75
2024/02/06 00:10:23;;;;;;;15.55;7.32;;;;;;;;;;633813;23;1080;-76
2024/02/06 00:10:39;;;;;;;16.17;7.57;;;;;;;;;;631137;23;1047;-75
2024/02/06 00:10:54;;;;;;;16.13;7.40;;;;;;;;;;631463;23;863;-75
2024/02/06 00:11:09;;;;;;;16.98;7.40;;;;;;;;;;628381;23;1072;-75
2024/02/06 00:11:24;;;;;;;16.17;7.33;;;;;;;;;;628110;23;1154;-74
2024/02/06 00:11:40;;;;;;;15.80;7.23;;;;;;;;;;628281;23;1241;-75
2024/02/06 00:11:55;;;;;;;15.48;6.88;;;;;;;;;;628117;23;1267;-74
2024/02/06 00:12:11;;;;;;;14.83;6.93;;;;;;;;;;624908;23;1340;-75
2024/02/06 00:12:26;;;;;;;16.87;7.20;;;;;;;;;;625292;23;1468;-75
2024/02/06 00:12:41;;;;;;;18.52;7.53;;;;;;;;;;628670;23;1302;-75
2024/02/06 00:12:56;;;;;;;17.23;7.70;;;;;;;;;;630941;23;1408;-76
2024/02/06 00:13:12;;;;;;;16.03;7.00;;;;;;;;;;631618;23;1126;-75
2024/02/06 00:13:27;;;;;;;15.67;6.80;;;;;;;;;;631453;23;926;-74
2024/02/06 00:13:42;;;;;;;15.80;7.03;;;;;;;;;;631467;23;1001;-75
2024/02/06 00:13:58;;;;;;;15.93;7.30;;;;;;;;;;631142;23;1159;-75
2024/02/06 00:14:13;;;;;;;14.10;7.60;;;;;;;;;;634391;23;1002;-75
2024/02/06 00:14:29;;;;;;;15.67;7.20;;;;;;;;;;627748;23;1178;-75
2024/02/06 00:14:44;;;;;;;16.50;6.80;;;;;;;;;;624881;23;1202;-75
2024/02/06 00:14:59;;;;;;;16.48;7.00;;;;;;;;;;628441;23;1132;-75
2024/02/06 00:15:15;;;;;;;17.50;7.38;;;;;;;;;;628280;23;1158;-75
2024/02/06 00:15:30;;;;;;;15.63;7.10;;;;;;;;;;628707;23;808;-75
2024/02/06 00:15:46;;;;;;;13.90;6.90;;;;;;;;;;627864;23;1277;-75
2024/02/06 00:16:01;;;;;;;14.93;6.82;;;;;;;;;;628090;23;1202;-75
2024/02/06 00:16:16;;;;;;;16.00;6.97;;;;;;;;;;628411;23;1087;-75
2024/02/06 00:16:32;;;;;;;13.93;6.83;;;;;;;;;;628544;23;1367;-75
2024/02/06 00:16:47;;;;;;;14.90;6.65;;;;;;;;;;628313;23;1204;-75
2024/02/06 00:17:02;;;;;;;15.13;6.53;;;;;;;;;;625254;23;1146;-75
2024/02/06 00:17:18;;;;;;;13.27;6.50;;;;;;;;;;624530;23;1022;-75
2024/02/06 00:17:33;;;;;;;14.82;6.72;;;;;;;;;;624929;23;1263;-75
2024/02/06 00:17:48;;;;;;;17.80;6.93;;;;;;;;;;625574;23;1304;-75
2024/02/06 00:18:05;;;;;;;19.63;7.10;;;;;;;;;;625831;23;1229;-75
2024/02/06 00:18:21;;;;;;;17.90;6.68;;;;;;;;;;625999;23;952;-75
2024/02/06 00:18:37;;;;;;;15.83;7.07;;;;;;;;;;628274;23;1474;-75
2024/02/06 00:18:52;;;;;;;17.23;7.63;;;;;;;;;;629579;23;821;-75
2024/02/06 00:19:08;;;;;;;17.10;7.27;;;;;;;;;;631288;23;1942;-75
2024/02/06 00:19:23;;;;;;;14.75;6.75;;;;;;;;;;630620;23;1193;-75
2024/02/06 00:19:39;;;;;;;13.33;6.80;;;;;;;;;;622778;23;1323;-75
2024/02/06 00:19:55;;;;;;;13.07;6.70;;;;;;;;;;622803;23;1114;-75
2024/02/06 00:20:10;;;;;;;12.73;6.40;;;;;;;;;;622792;23;872;-75
2024/02/06 00:20:26;;;;;;;15.60;6.60;;;;;;;;;;622279;23;1400;-75
2024/02/06 00:20:41;;;;;;;15.53;6.83;;;;;;;;;;622607;23;1279;-75
2024/02/06 00:20:56;;;;;;;15.23;7.03;;;;;;;;;;625322;23;1209;-75
2024/02/06 00:21:12;;;;;;;17.90;7.17;;;;;;;;;;622338;23;1442;-75
2024/02/06 00:21:27;;;;;;;15.90;6.80;;;;;;;;;;623236;23;1150;-75
2024/02/06 00:21:42;;;;;;;14.57;6.70;;;;;;;;;;625912;23;971;-75
2024/02/06 00:21:58;;;;;;;14.95;6.80;;;;;;;;;;625594;23;1363;-75
2024/02/06 00:22:13;;;;;;;15.40;6.70;;;;;;;;;;624727;23;1252;-75
2024/02/06 00:22:28;;;;;;;17.17;6.90;;;;;;;;;;619628;23;1236;-75
2024/02/06 00:22:44;;;;;;;19.05;7.13;;;;;;;;;;619616;23;1056;-75
2024/02/06 00:22:59;;;;;;;17.93;7.20;;;;;;;;;;625374;23;1242;-75
2024/02/06 00:23:14;;;;;;;15.27;7.03;;;;;;;;;;625345;23;1175;-75
2024/02/06 00:23:30;;;;;;;15.17;7.00;;;;;;;;;;631340;23;1234;-75
2024/02/06 00:23:45;;;;;;;14.93;6.82;;;;;;;;;;628322;23;1242;-75
2024/02/06 00:24:03;;;;;;;14.60;6.90;;;;;;;;;;628627;23;1179;-75
2024/02/06 00:24:18;;;;;;;13.65;6.72;;;;;;;;;;629107;23;1230;-75
2024/02/06 00:24:34;;;;;;;16.20;7.00;;;;;;;;;;628606;23;986;-75
2024/02/06 00:24:49;;;;;;;15.33;6.87;;;;;;;;;;625687;23;1062;-75
2024/02/06 00:25:06;;;;;;;13.07;6.40;;;;;;;;;;625757;23;1105;-75
2024/02/06 00:25:21;;;;;;;15.07;6.40;;;;;;;;;;628134;23;1203;-75
2024/02/06 00:25:37;;;;;;;15.05;6.72;;;;;;;;;;628522;23;1238;-75
2024/02/06 00:25:53;;;;;;;14.23;6.90;;;;;;;;;;628696;23;934;-76
2024/02/06 00:26:09;;;;;;;14.77;6.72;;;;;;;;;;625860;23;1447;-76
2024/02/06 00:26:24;;;;;;;14.40;6.47;;;;;;;;;;631247;23;1285;-75
2024/02/06 00:26:40;;;;;;;15.87;6.80;;;;;;;;;;628541;23;1339;-76
2024/02/06 00:26:56;;;;;;;15.93;6.93;;;;;;;;;;628824;23;876;-75
2024/02/06 00:27:11;;;;;;;13.50;6.53;;;;;;;;;;625137;23;1301;-75
2024/02/06 00:27:27;;;;;;;13.47;6.50;;;;;;;;;;625353;23;1465;-76
2024/02/06 00:27:42;;;;;;;13.35;6.40;;;;;;;;;;628872;23;1290;-75
2024/02/06 00:27:57;;;;;;;14.17;6.30;;;;;;;;;;629014;23;1234;-75
2024/02/06 00:28:13;;;;;;;13.57;6.30;;;;;;;;;;631316;23;1028;-75
2024/02/06 00:28:28;;;;;;;12.37;6.13;;;;;;;;;;632024;23;784;-75
2024/02/06 00:28:46;;;;;;;14.27;6.43;;;;;;;;;;628710;23;1298;-75
2024/02/06 00:29:01;;;;;;;15.93;6.88;;;;;;;;;;625629;23;1334;-76
2024/02/06 00:29:16;;;;;;;13.97;6.87;;;;;;;;;;622188;23;1177;-75
2024/02/06 00:29:31;;;;;;;14.32;6.90;;;;;;;;;;622699;23;1345;-75
2024/02/06 00:29:51;;;;;;;12.30;6.43;;;;;;;;;;622469;23;1313;-75
2024/02/06 00:30:07;;;;;;;12.77;6.47;;;;;;;;;;622621;23;888;-75
2024/02/06 00:30:23;;;;;;;15.10;6.70;;;;;;;;;;622374;23;1503;-75
2024/02/06 00:30:39;;;;;;;14.57;6.65;;;;;;;;;;624962;23;939;-75
2024/02/06 00:30:54;;;;;;;14.67;6.27;;;;;;;;;;627245;23;1045;-75
2024/02/06 00:31:09;;;;;;;14.43;6.00;;;;;;;;;;628283;23;1113;-75
2024/02/06 00:31:24;;;;;;;11.95;6.00;;;;;;;;;;629884;23;1184;-75
2024/02/06 00:31:40;;;;;;;13.03;6.20;;;;;;;;;;631326;23;1071;-75
2024/02/06 00:31:56;;;;;;;13.75;6.40;;;;;;;;;;632056;23;1234;-75
2024/02/06 00:32:11;;;;;;;12.80;6.50;;;;;;;;;;630858;23;1294;-75
2024/02/06 00:32:27;;;;;;;13.98;6.47;;;;;;;;;;631604;23;1269;-75
2024/02/06 00:32:43;;;;;;;14.53;6.27;;;;;;;;;;628878;23;1245;-75
2024/02/06 00:32:59;;;;;;;12.82;5.95;;;;;;;;;;628837;23;797;-74
2024/02/06 00:33:14;;;;;;;15.13;6.23;;;;;;;;;;628626;23;792;-75
2024/02/06 00:33:29;;;;;;;14.35;6.22;;;;;;;;;;628781;23;964;-75
2024/02/06 00:33:45;;;;;;;12.93;6.23;;;;;;;;;;628365;23;1429;-75
2024/02/06 00:34:00;;;;;;;13.23;6.17;;;;;;;;;;625750;23;1285;-75
2024/02/06 00:34:18;;;;;;;12.73;6.00;;;;;;;;;;625598;23;962;-76
2024/02/06 00:34:33;;;;;;;13.45;6.22;;;;;;;;;;626967;23;908;-75
2024/02/06 00:34:49;;;;;;;12.57;6.03;;;;;;;;;;625785;23;1284;-75
2024/02/06 00:35:04;;;;;;;12.40;5.97;;;;;;;;;;625478;23;1451;-75
2024/02/06 00:35:20;;;;;;;12.02;5.95;;;;;;;;;;625848;23;941;-75
2024/02/06 00:35:36;;;;;;;11.93;5.73;;;;;;;;;;625537;23;1243;-75
2024/02/06 00:35:51;;;;;;;11.88;5.95;;;;;;;;;;626969;23;972;-75
2024/02/06 00:36:07;;;;;;;13.20;5.97;;;;;;;;;;628362;23;1270;-75
2024/02/06 00:36:22;;;;;;;13.53;6.10;;;;;;;;;;628932;23;1026;-75
2024/02/06 00:36:37;;;;;;;13.80;6.40;;;;;;;;;;625831;23;1071;-76
2024/02/06 00:36:53;;;;;;;13.30;5.93;;;;;;;;;;629140;23;887;-75
2024/02/06 00:37:08;;;;;;;12.63;5.80;;;;;;;;;;625676;23;971;-75
2024/02/06 00:37:23;;;;;;;13.02;6.20;;;;;;;;;;625273;23;1155;-75
2024/02/06 00:37:39;;;;;;;12.97;6.23;;;;;;;;;;628738;23;1263;-75
2024/02/06 00:37:57;;;;;;;13.45;6.18;;;;;;;;;;626271;23;953;-75
2024/02/06 00:38:13;;;;;;;14.88;6.22;;;;;;;;;;628447;23;970;-75
2024/02/06 00:38:28;;;;;;;15.33;6.10;;;;;;;;;;629305;23;1306;-75
2024/02/06 00:38:45;;;;;;;14.63;5.80;;;;;;;;;;628521;23;1403;-75
2024/02/06 00:39:00;;;;;;;15.70;5.78;;;;;;;;;;629896;23;1293;-75
2024/02/06 00:39:16;;;;;;;15.55;6.00;;;;;;;;;;631259;23;2023;-74
2024/02/06 00:39:31;;;;;;;14.77;6.20;;;;;;;;;;630524;23;792;-75
2024/02/06 00:39:47;;;;;;;14.40;5.95;;;;;;;;;;628694;23;1136;-75
2024/02/06 00:40:02;;;;;;;12.27;5.70;;;;;;;;;;628632;23;1142;-75
2024/02/06 00:40:18;;;;;;;12.68;6.32;;;;;;;;;;627979;23;1206;-75
2024/02/06 00:40:34;;;;;;;14.38;6.65;;;;;;;;;;629343;23;1029;-75
2024/02/06 00:40:50;;;;;;;13.98;6.10;;;;;;;;;;631842;23;938;-75
2024/02/06 00:41:05;;;;;;;12.93;5.78;;;;;;;;;;631511;23;1451;-75
2024/02/06 00:41:20;;;;;;;11.70;5.80;;;;;;;;;;628477;23;1260;-75
2024/02/06 00:41:37;;;;;;;12.90;5.93;;;;;;;;;;631130;23;1211;-75
2024/02/06 00:41:52;;;;;;;14.13;5.97;;;;;;;;;;632024;23;812;-75
2024/02/06 00:42:09;;;;;;;12.20;5.90;;;;;;;;;;631467;23;1208;-75
2024/02/06 00:42:24;;;;;;;13.07;6.03;;;;;;;;;;631645;23;970;-75
2024/02/06 00:42:40;;;;;;;14.63;6.10;;;;;;;;;;628963;23;978;-75
2024/02/06 00:42:55;;;;;;;14.70;6.20;;;;;;;;;;628867;23;1188;-75
2024/02/06 00:43:10;;;;;;;14.63;6.30;;;;;;;;;;629183;23;1180;-75
2024/02/06 00:43:26;;;;;;;14.07;6.23;;;;;;;;;;631654;23;1265;-75
2024/02/06 00:43:41;;;;;;;13.17;5.93;;;;;;;;;;628801;23;1322;-76
2024/02/06 00:43:56;;;;;;;14.65;5.85;;;;;;;;;;628386;23;1295;-75
2024/02/06 00:44:11;;;;;;;14.63;6.30;;;;;;;;;;631168;23;1269;-75
2024/02/06 00:44:27;;;;;;;11.50;6.00;;;;;;;;;;631871;23;1110;-75
2024/02/06 00:44:43;;;;;;;12.15;5.90;;;;;;;;;;632027;23;809;-75
2024/02/06 00:44:58;;;;;;;13.35;6.05;;;;;;;;;;632345;23;873;-75
2024/02/06 00:45:17;;;;;;;12.70;5.80;;;;;;;;;;634830;23;852;-74
2024/02/06 00:45:32;;;;;;;11.38;5.60;;;;;;;;;;631879;23;1243;-76
2024/02/06 00:45:50;;;;;;;11.63;5.87;;;;;;;;;;628893;23;1257;-75
2024/02/06 00:46:09;;;;;;;11.93;5.82;;;;;;;;;;628706;23;880;-75
2024/02/06 00:46:25;;;;;;;12.65;5.97;;;;;;;;;;628479;23;983;-75
2024/02/06 00:46:40;;;;;;;12.20;5.72;;;;;;;;;;628725;23;1211;-75
2024/02/06 00:46:55;;;;;;;12.63;5.70;;;;;;;;;;628633;23;1378;-75
2024/02/06 00:47:11;;;;;;;13.80;5.72;;;;;;;;;;627630;23;813;-75
2024/02/06 00:47:26;;;;;;;13.40;5.80;;;;;;;;;;627120;23;1268;-75
2024/02/06 00:47:42;;;;;;;13.40;6.00;;;;;;;;;;630058;23;1330;-75
2024/02/06 00:47:57;;;;;;;13.90;5.82;;;;;;;;;;631903;23;863;-75
2024/02/06 00:48:13;;;;;;;13.97;6.07;;;;;;;;;;631619;23;1354;-75
2024/02/06 00:48:28;;;;;;;12.68;6.18;;;;;;;;;;628585;23;1444;-75
2024/02/06 00:48:43;;;;;;;11.87;5.93;;;;;;;;;;625492;23;1221;-75
2024/02/06 00:48:59;;;;;;;12.27;5.95;;;;;;;;;;625753;23;1085;-75
2024/02/06 00:49:16;;;;;;;11.70;5.80;;;;;;;;;;625346;23;1169;-75
2024/02/06 00:49:31;;;;;;;11.40;5.40;;;;;;;;;;625434;23;1467;-75
2024/02/06 00:49:46;;;;;;;10.03;5.27;;;;;;;;;;622551;23;1325;-75
2024/02/06 00:50:01;;;;;;;11.33;5.47;;;;;;;;;;622780;23;1111;-75
2024/02/06 00:50:18;;;;;;;13.02;5.70;;;;;;;;;;625946;23;1250;-75
2024/02/06 00:50:33;;;;;;;11.38;5.65;;;;;;;;;;629540;23;792;-75
2024/02/06 00:50:48;;;;;;;10.53;5.50;;;;;;;;;;631258;23;1186;-74
2024/02/06 00:51:04;;;;;;;11.47;5.53;;;;;;;;;;632664;23;836;-74
2024/02/06 00:51:20;;;;;;;12.85;5.50;;;;;;;;;;634147;23;1144;-74
2024/02/06 00:51:35;;;;;;;12.68;5.45;;;;;;;;;;634634;23;1465;-75
2024/02/06 00:51:50;;;;;;;12.50;5.50;;;;;;;;;;633803;23;1068;-74
2024/02/06 00:52:06;;;;;;;13.45;5.90;;;;;;;;;;631809;23;846;-74
2024/02/06 00:52:21;;;;;;;12.87;5.80;;;;;;;;;;630834;23;1104;-75
2024/02/06 00:52:36;;;;;;;11.23;5.40;;;;;;;;;;628449;23;1252;-75
2024/02/06 00:52:52;;;;;;;9.97;5.40;;;;;;;;;;625340;23;1328;-75
2024/02/06 00:53:07;;;;;;;10.13;5.40;;;;;;;;;;625256;23;1371;-75
2024/02/06 00:53:22;;;;;;;10.37;5.50;;;;;;;;;;622732;23;1335;-75
2024/02/06 00:53:38;;;;;;;10.47;5.53;;;;;;;;;;625573;23;1595;-75
2024/02/06 00:53:53;;;;;;;9.47;5.10;;;;;;;;;;625163;23;1221;-75
2024/02/06 00:54:08;;;;;;;11.63;5.33;;;;;;;;;;625698;23;1046;-75
2024/02/06 00:54:23;;;;;;;13.10;5.63;;;;;;;;;;628033;23;1124;-75
2024/02/06 00:54:39;;;;;;;12.27;5.68;;;;;;;;;;628586;23;1131;-75
2024/02/06 00:54:55;;;;;;;11.67;5.40;;;;;;;;;;628794;23;1316;-75
2024/02/06 00:55:10;;;;;;;10.07;5.03;;;;;;;;;;625777;23;1242;-75
2024/02/06 00:55:26;;;;;;;8.82;4.90;;;;;;;;;;628501;23;812;-75
2024/02/06 00:55:41;;;;;;;9.03;4.97;;;;;;;;;;624969;23;1166;-75
2024/02/06 00:55:56;;;;;;;10.87;5.30;;;;;;;;;;622204;23;1220;-75
2024/02/06 00:56:12;;;;;;;12.70;5.70;;;;;;;;;;624701;23;1705;-75
2024/02/06 00:56:27;;;;;;;11.93;5.87;;;;;;;;;;627736;23;1302;-75
2024/02/06 00:56:42;;;;;;;12.47;5.70;;;;;;;;;;630636;23;1249;-74
2024/02/06 00:56:57;;;;;;;13.90;5.60;;;;;;;;;;631275;23;1146;-75
2024/02/06 00:57:13;;;;;;;12.27;5.40;;;;;;;;;;630334;23;1265;-76
2024/02/06 00:57:28;;;;;;;11.67;5.10;;;;;;;;;;628224;23;1207;-75
2024/02/06 00:57:43;;;;;;;12.43;5.10;;;;;;;;;;625173;23;1234;-76
2024/02/06 00:58:00;;;;;;;12.95;5.22;;;;;;;;;;628185;23;1678;-76
2024/02/06 00:58:16;;;;;;;12.48;5.07;;;;;;;;;;628353;23;900;-75
2024/02/06 00:58:32;;;;;;;9.50;4.90;;;;;;;;;;627711;23;1171;-76
2024/02/06 00:58:47;;;;;;;10.50;5.13;;;;;;;;;;629193;23;1408;-76
2024/02/06 00:59:03;;;;;;;11.35;5.28;;;;;;;;;;631438;23;844;-76
2024/02/06 00:59:18;;;;;;;12.13;5.17;;;;;;;;;;631280;23;1209;-76
2024/02/06 00:59:34;;;;;;;11.93;5.32;;;;;;;;;;630688;23;812;-76
2024/02/06 00:59:50;;;;;;;11.10;5.40;;;;;;;;;;626319;23;1319;-76
2024/02/06 01:00:07;;;;;;;10.73;5.05;;;;;;;;;;628319;23;1267;-75
2024/02/06 01:00:23;;;;;;;9.45;4.82;;;;;;;;;;627949;23;1027;-76
2024/02/06 01:00:38;;;;;;;10.33;4.97;;;;;;;;;;628079;23;1296;-75
2024/02/06 01:00:53;;;;;;;12.00;5.10;;;;;;;;;;625302;23;1352;-75
2024/02/06 01:01:10;;;;;;;13.32;5.20;;;;;;;;;;625530;23;1150;-75
2024/02/06 01:01:25;;;;;;;13.02;5.07;;;;;;;;;;625534;23;1271;-75
2024/02/06 01:01:41;;;;;;;11.30;5.00;;;;;;;;;;623611;23;987;-76
2024/02/06 01:01:59;;;;;;;9.63;4.53;;;;;;;;;;626526;23;1106;-76
2024/02/06 01:02:14;;;;;;;10.05;4.88;;;;;;;;;;627324;23;1417;-75
2024/02/06 01:02:29;;;;;;;10.93;5.23;;;;;;;;;;628341;23;1504;-76
2024/02/06 01:02:45;;;;;;;12.98;5.10;;;;;;;;;;625125;23;1033;-75
2024/02/06 01:03:00;;;;;;;14.00;5.30;;;;;;;;;;625671;23;742;-76
2024/02/06 01:03:15;;;;;;;13.55;5.57;;;;;;;;;;622328;23;1027;-75
2024/02/06 01:03:30;;;;;;;12.23;5.50;;;;;;;;;;623353;23;821;-77
2024/02/06 01:03:48;;;;;;;10.47;5.07;;;;;;;;;;625597;23;1273;-76
2024/02/06 01:04:05;;;;;;;10.80;4.72;;;;;;;;;;625706;23;915;-75
2024/02/06 01:04:20;;;;;;;10.95;4.90;;;;;;;;;;626425;23;880;-76
2024/02/06 01:04:36;;;;;;;11.63;5.30;;;;;;;;;;629728;23;1264;-76
2024/02/06 01:04:52;;;;;;;13.37;5.30;;;;;;;;;;630926;23;1323;-76
2024/02/06 01:05:08;;;;;;;13.13;5.07;;;;;;;;;;632778;23;1329;-75
2024/02/06 01:05:23;;;;;;;11.82;5.13;;;;;;;;;;631339;23;1193;-76
2024/02/06 01:05:39;;;;;;;11.00;5.07;;;;;;;;;;631368;23;1115;-76
2024/02/06 01:05:54;;;;;;;11.57;5.00;;;;;;;;;;631435;23;884;-75
2024/02/06 01:06:10;;;;;;;11.63;5.00;;;;;;;;;;631289;23;1134;-76
2024/02/06 01:06:27;;;;;;;11.63;4.70;;;;;;;;;;631214;23;832;-76
2024/02/06 01:06:42;;;;;;;11.98;4.57;;;;;;;;;;631218;23;860;-76
2024/02/06 01:06:57;;;;;;;10.18;4.72;;;;;;;;;;631484;23;1362;-76
2024/02/06 01:07:13;;;;;;;10.03;4.73;;;;;;;;;;631492;23;1164;-76
2024/02/06 01:07:28;;;;;;;9.87;4.80;;;;;;;;;;634237;23;1311;-76
2024/02/06 01:07:43;;;;;;;11.30;5.07;;;;;;;;;;634431;23;1081;-76
2024/02/06 01:07:59;;;;;;;11.47;4.93;;;;;;;;;;634294;23;1184;-76
2024/02/06 01:08:15;;;;;;;9.90;4.80;;;;;;;;;;630723;23;1163;-76
2024/02/06 01:08:30;;;;;;;11.05;4.70;;;;;;;;;;627612;23;1252;-76
2024/02/06 01:08:46;;;;;;;13.57;4.90;;;;;;;;;;625014;23;1315;-76
2024/02/06 01:09:01;;;;;;;13.23;5.10;;;;;;;;;;625225;23;1014;-76
2024/02/06 01:09:16;;;;;;;11.67;5.00;;;;;;;;;;625447;23;753;-75
2024/02/06 01:09:32;;;;;;;10.10;4.80;;;;;;;;;;625458;23;1007;-76
2024/02/06 01:09:47;;;;;;;9.17;4.87;;;;;;;;;;625755;23;1283;-76
2024/02/06 01:10:03;;;;;;;10.38;5.30;;;;;;;;;;628064;23;1328;-75
2024/02/06 01:10:19;;;;;;;9.43;5.05;;;;;;;;;;628366;23;1256;-75
2024/02/06 01:10:35;;;;;;;9.77;4.70;;;;;;;;;;631087;23;891;-75
2024/02/06 01:10:50;;;;;;;12.23;5.15;;;;;;;;;;628100;23;1239;-76
2024/02/06 01:11:05;;;;;;;12.00;4.97;;;;;;;;;;628329;23;1146;-75
2024/02/06 01:11:21;;;;;;;10.50;4.50;;;;;;;;;;628437;23;931;-75
2024/02/06 01:11:36;;;;;;;9.47;4.67;;;;;;;;;;624786;23;1119;-76
2024/02/06 01:11:53;;;;;;;10.00;5.00;;;;;;;;;;623543;23;1358;-75
2024/02/06 01:12:08;;;;;;;11.30;5.15;;;;;;;;;;628382;23;959;-76
2024/02/06 01:12:23;;;;;;;10.93;5.18;;;;;;;;;;627954;23;1073;-76
2024/02/06 01:12:39;;;;;;;10.20;5.00;;;;;;;;;;628288;23;1286;-76
2024/02/06 01:12:54;;;;;;;9.30;4.88;;;;;;;;;;628122;23;1134;-76
2024/02/06 01:13:09;;;;;;;10.40;5.20;;;;;;;;;;628252;23;1312;-76
2024/02/06 01:13:24;;;;;;;10.43;5.20;;;;;;;;;;628678;23;1164;-75
2024/02/06 01:13:40;;;;;;;9.73;4.85;;;;;;;;;;631595;23;860;-75
2024/02/06 01:13:56;;;;;;;10.70;4.88;;;;;;;;;;631423;23;1080;-75
2024/02/06 01:14:11;;;;;;;10.60;5.07;;;;;;;;;;631301;23;841;-76
2024/02/06 01:14:28;;;;;;;9.93;4.90;;;;;;;;;;630886;23;1199;-75
2024/02/06 01:14:43;;;;;;;10.45;4.90;;;;;;;;;;628270;23;844;-76
2024/02/06 01:14:59;;;;;;;10.53;5.00;;;;;;;;;;625597;23;1121;-76
2024/02/06 01:15:14;;;;;;;9.65;4.85;;;;;;;;;;625907;23;1179;-76
2024/02/06 01:15:32;;;;;;;9.33;4.90;;;;;;;;;;628263;23;1336;-76
2024/02/06 01:15:47;;;;;;;10.48;4.85;;;;;;;;;;631684;23;1386;-75
2024/02/06 01:16:04;;;;;;;11.13;4.80;;;;;;;;;;631428;23;959;-75
2024/02/06 01:16:20;;;;;;;10.90;5.00;;;;;;;;;;631455;23;1095;-76
2024/02/06 01:16:35;;;;;;;9.93;5.00;;;;;;;;;;632301;23;1180;-75
2024/02/06 01:16:50;;;;;;;10.30;4.83;;;;;;;;;;634613;23;828;-75
2024/02/06 01:17:05;;;;;;;10.40;4.97;;;;;;;;;;634011;23;1403;-76
2024/02/06 01:17:21;;;;;;;11.65;4.82;;;;;;;;;;629726;23;1007;-76
2024/02/06 01:17:36;;;;;;;11.17;4.37;;;;;;;;;;625341;23;1183;-75
2024/02/06 01:17:51;;;;;;;10.10;4.50;;;;;;;;;;625400;23;1240;-76
2024/02/06 01:18:08;;;;;;;10.32;4.72;;;;;;;;;;625496;23;955;-75
2024/02/06 01:18:23;;;;;;;10.88;4.78;;;;;;;;;;626225;23;824;-76
2024/02/06 01:18:39;;;;;;;9.25;4.53;;;;;;;;;;628861;23;1247;-76
2024/02/06 01:18:54;;;;;;;8.57;4.53;;;;;;;;;;625569;23;1227;-75
2024/02/06 01:19:09;;;;;;;9.00;4.87;;;;;;;;;;622998;23;1965;-75
2024/02/06 01:19:25;;;;;;;7.93;4.70;;;;;;;;;;628307;23;1360;-76
2024/02/06 01:19:40;;;;;;;8.70;4.57;;;;;;;;;;628504;23;1413;-76
2024/02/06 01:19:55;;;;;;;10.00;4.60;;;;;;;;;;628421;23;988;-76
2024/02/06 01:20:11;;;;;;;9.67;4.60;;;;;;;;;;625598;23;1323;-76
2024/02/06 01:20:26;;;;;;;10.18;4.70;;;;;;;;;;625821;23;1181;-75
2024/02/06 01:20:41;;;;;;;9.73;4.70;;;;;;;;;;628497;23;1294;-76
2024/02/06 01:20:57;;;;;;;9.75;4.60;;;;;;;;;;628679;23;848;-76
2024/02/06 01:21:12;;;;;;;8.83;4.53;;;;;;;;;;628499;23;1113;-76
2024/02/06 01:21:27;;;;;;;6.70;4.20;;;;;;;;;;628628;23;1344;-76
2024/02/06 01:21:43;;;;;;;7.65;4.28;;;;;;;;;;628560;23;1299;-76
2024/02/06 01:21:58;;;;;;;10.17;4.70;;;;;;;;;;628920;23;1231;-75
2024/02/06 01:22:13;;;;;;;11.10;4.80;;;;;;;;;;628089;23;1176;-76
2024/02/06 01:22:28;;;;;;;10.45;4.65;;;;;;;;;;628496;23;1330;-76
2024/02/06 01:22:44;;;;;;;9.70;4.40;;;;;;;;;;631468;23;1166;-75
2024/02/06 01:22:59;;;;;;;10.00;4.57;;;;;;;;;;628595;23;1286;-76
2024/02/06 01:23:14;;;;;;;10.17;4.90;;;;;;;;;;625410;23;1205;-76
2024/02/06 01:23:30;;;;;;;7.93;4.60;;;;;;;;;;625687;23;1351;-75
2024/02/06 01:23:45;;;;;;;7.73;4.20;;;;;;;;;;628434;23;1137;-75
2024/02/06 01:24:00;;;;;;;10.30;4.53;;;;;;;;;;622016;23;1303;-75
2024/02/06 01:24:16;;;;;;;10.55;4.50;;;;;;;;;;622691;23;913;-75
2024/02/06 01:24:31;;;;;;;9.37;4.40;;;;;;;;;;622614;23;1269;-76
2024/02/06 01:24:46;;;;;;;9.27;4.37;;;;;;;;;;626373;23;892;-76
2024/02/06 01:25:03;;;;;;;10.23;4.45;;;;;;;;;;631289;23;1176;-76
2024/02/06 01:25:19;;;;;;;9.48;4.60;;;;;;;;;;631413;23;856;-76
2024/02/06 01:25:34;;;;;;;8.43;4.47;;;;;;;;;;631910;23;804;-76
2024/02/06 01:25:50;;;;;;;9.03;4.60;;;;;;;;;;632126;23;924;-76
2024/02/06 01:26:05;;;;;;;8.97;4.67;;;;;;;;;;631605;23;1121;-76
2024/02/06 01:26:21;;;;;;;7.43;4.60;;;;;;;;;;628555;23;1194;-76
2024/02/06 01:26:37;;;;;;;7.22;4.43;;;;;;;;;;628867;23;923;-76
2024/02/06 01:26:53;;;;;;;8.07;4.33;;;;;;;;;;628596;23;1322;-75
2024/02/06 01:27:08;;;;;;;8.18;4.30;;;;;;;;;;628641;23;904;-75
2024/02/06 01:27:23;;;;;;;8.18;4.13;;;;;;;;;;628172;23;1017;-75
2024/02/06 01:27:39;;;;;;;8.63;4.30;;;;;;;;;;628706;23;1052;-75
2024/02/06 01:27:54;;;;;;;8.00;4.40;;;;;;;;;;629011;23;1244;-75
2024/02/06 01:28:11;;;;;;;7.97;4.40;;;;;;;;;;628914;23;1213;-76
2024/02/06 01:28:27;;;;;;;9.75;4.88;;;;;;;;;;628750;23;1250;-76
2024/02/06 01:28:42;;;;;;;10.13;4.77;;;;;;;;;;628546;23;1175;-76
2024/02/06 01:28:57;;;;;;;9.55;4.43;;;;;;;;;;628535;23;973;-76
2024/02/06 01:29:13;;;;;;;9.93;4.40;;;;;;;;;;625349;23;1156;-76
2024/02/06 01:29:29;;;;;;;8.57;4.23;;;;;;;;;;625529;23;1349;-76
2024/02/06 01:29:47;;;;;;;8.02;4.15;;;;;;;;;;625810;23;899;-76
2024/02/06 01:30:04;;;;;;;9.70;4.38;;;;;;;;;;625436;23;1368;-76
2024/02/06 01:30:19;;;;;;;9.07;4.28;;;;;;;;;;628088;23;1027;-76
2024/02/06 01:30:34;;;;;;;8.05;4.20;;;;;;;;;;628299;23;1185;-76
2024/02/06 01:30:50;;;;;;;7.43;4.30;;;;;;;;;;628576;23;1289;-77
2024/02/06 01:31:05;;;;;;;7.70;4.23;;;;;;;;;;631738;23;1200;-76
2024/02/06 01:31:20;;;;;;;7.95;4.00;;;;;;;;;;632792;23;1275;-76
2024/02/06 01:31:36;;;;;;;8.23;4.00;;;;;;;;;;633805;23;1262;-76
2024/02/06 01:31:52;;;;;;;7.72;4.25;;;;;;;;;;633982;23;882;-76
2024/02/06 01:32:07;;;;;;;8.60;4.50;;;;;;;;;;628350;23;1330;-76
2024/02/06 01:32:22;;;;;;;9.23;4.60;;;;;;;;;;631075;23;1391;-76
2024/02/06 01:32:37;;;;;;;8.70;4.40;;;;;;;;;;631213;23;1368;-76
2024/02/06 01:32:53;;;;;;;9.40;4.30;;;;;;;;;;629237;23;1353;-76
2024/02/06 01:33:08;;;;;;;9.07;4.30;;;;;;;;;;628567;23;1069;-76
2024/02/06 01:33:23;;;;;;;8.40;4.30;;;;;;;;;;628774;23;911;-76
2024/02/06 01:33:39;;;;;;;7.73;4.20;;;;;;;;;;628614;23;1098;-76
2024/02/06 01:33:54;;;;;;;7.37;4.17;;;;;;;;;;629001;23;1038;-76
2024/02/06 01:34:09;;;;;;;8.77;4.15;;;;;;;;;;630837;23;1150;-76
2024/02/06 01:34:25;;;;;;;8.83;4.00;;;;;;;;;;628537;23;1319;-76
2024/02/06 01:34:41;;;;;;;9.03;4.00;;;;;;;;;;628752;23;1225;-76
2024/02/06 01:34:56;;;;;;;9.70;4.00;;;;;;;;;;629242;23;1207;-76
2024/02/06 01:35:12;;;;;;;8.60;3.97;;;;;;;;;;628187;23;1329;-76
2024/02/06 01:35:27;;;;;;;8.20;4.10;;;;;;;;;;628912;23;765;-76
2024/02/06 01:35:42;;;;;;;7.70;4.10;;;;;;;;;;628684;23;1177;-76